Terminal Aerodrome Forecast
Issued by NWS

Home | Current Version | Previous Version | Text Only | Print | Product List | Glossary On
Versions: 1 2 3 4 5 6 7 8 9 10 11 12 13 14 15
000
FTUS43 KILX 280538 AAB
TAFBMI
TAF AMD
KBMI 280538Z 2806/0106 15017KT P6SM -SHRA VCTS OVC070CB
     FM281000 18012KT P6SM VCTS OVC025CB
     FM281200 18012KT P6SM OVC015
     FM281500 19016G27KT P6SM BKN015
     FM010000 20017G26KT P6SM -SHRA VCTS OVC035CB WS020/22045KT=

USA.gov is the U.S. government's official web portal to all federal, state and local government web resources and services.